sensor_id;sensor_type;location;lat;lon;timestamp;pressure;altitude;pressure_sealevel;temperature
20289;BMP180;10303;51.960;8.372;2022-12-18T00:01:22;101721.00;;;-6.70
20289;BMP180;10303;51.960;8.372;2022-12-18T00:03:48;101704.00;;;-6.70
20289;BMP180;10303;51.960;8.372;2022-12-18T00:06:16;101726.00;;;-6.60
20289;BMP180;10303;51.960;8.372;2022-12-18T00:08:43;101712.00;;;-6.60
20289;BMP180;10303;51.960;8.372;2022-12-18T00:11:16;101715.00;;;-6.50
20289;BMP180;10303;51.960;8.372;2022-12-18T00:13:43;101713.00;;;-6.50
20289;BMP180;10303;51.960;8.372;2022-12-18T00:16:14;101716.00;;;-6.50
20289;BMP180;10303;51.960;8.372;2022-12-18T00:18:42;101721.00;;;-6.50
20289;BMP180;10303;51.960;8.372;2022-12-18T00:21:11;101726.00;;;-6.50
20289;BMP180;10303;51.960;8.372;2022-12-18T00:23:39;101725.00;;;-6.50
20289;BMP180;10303;51.960;8.372;2022-12-18T00:26:18;101726.00;;;-6.50
20289;BMP180;10303;51.960;8.372;2022-12-18T00:28:45;101724.00;;;-6.50
20289;BMP180;10303;51.960;8.372;2022-12-18T00:31:21;101734.00;;;-6.50
20289;BMP180;10303;51.960;8.372;2022-12-18T00:33:48;101730.00;;;-6.50
20289;BMP180;10303;51.960;8.372;2022-12-18T00:36:20;101719.00;;;-6.50
20289;BMP180;10303;51.960;8.372;2022-12-18T00:38:47;101748.00;;;-6.40
20289;BMP180;10303;51.960;8.372;2022-12-18T00:41:18;101729.00;;;-6.40
20289;BMP180;10303;51.960;8.372;2022-12-18T00:44:06;101728.00;;;-6.40
20289;BMP180;10303;51.960;8.372;2022-12-18T00:46:32;101724.00;;;-6.30
20289;BMP180;10303;51.960;8.372;2022-12-18T00:48:59;101735.00;;;-6.20
20289;BMP180;10303;51.960;8.372;2022-12-18T00:51:26;101733.00;;;-6.20
20289;BMP180;10303;51.960;8.372;2022-12-18T00:53:52;101722.00;;;-6.20
20289;BMP180;10303;51.960;8.372;2022-12-18T00:56:21;101742.00;;;-6.10
20289;BMP180;10303;51.960;8.372;2022-12-18T00:58:47;101721.00;;;-6.10
20289;BMP180;10303;51.960;8.372;2022-12-18T01:01:14;101723.00;;;-6.10
20289;BMP180;10303;51.960;8.372;2022-12-18T01:03:40;101711.00;;;-6.10
20289;BMP180;10303;51.960;8.372;2022-12-18T01:06:11;101713.00;;;-6.10
20289;BMP180;10303;51.960;8.372;2022-12-18T01:08:38;101717.00;;;-6.10
20289;BMP180;10303;51.960;8.372;2022-12-18T01:11:10;101711.00;;;-6.10
20289;BMP180;10303;51.960;8.372;2022-12-18T01:13:38;101713.00;;;-6.10
20289;BMP180;10303;51.960;8.372;2022-12-18T01:16:04;101711.00;;;-6.00
20289;BMP180;10303;51.960;8.372;2022-12-18T01:18:30;101726.00;;;-6.00
20289;BMP180;10303;51.960;8.372;2022-12-18T01:20:58;101714.00;;;-6.00
20289;BMP180;10303;51.960;8.372;2022-12-18T01:23:24;101713.00;;;-6.00
20289;BMP180;10303;51.960;8.372;2022-12-18T01:25:50;101714.00;;;-6.00
20289;BMP180;10303;51.960;8.372;2022-12-18T01:28:16;101716.00;;;-6.00
20289;BMP180;10303;51.960;8.372;2022-12-18T01:30:42;101726.00;;;-6.00
20289;BMP180;10303;51.960;8.372;2022-12-18T01:33:08;101732.00;;;-6.00
20289;BMP180;10303;51.960;8.372;2022-12-18T01:35:41;101717.00;;;-6.00
20289;BMP180;10303;51.960;8.372;2022-12-18T01:38:07;101709.00;;;-5.90
20289;BMP180;10303;51.960;8.372;2022-12-18T01:40:33;101716.00;;;-5.90
20289;BMP180;10303;51.960;8.372;2022-12-18T01:42:59;101713.00;;;-5.90
20289;BMP180;10303;51.960;8.372;2022-12-18T01:45:28;101735.00;;;-5.90
20289;BMP180;10303;51.960;8.372;2022-12-18T01:48:02;101731.00;;;-5.90
20289;BMP180;10303;51.960;8.372;2022-12-18T01:50:34;101720.00;;;-5.90
20289;BMP180;10303;51.960;8.372;2022-12-18T01:53:21;101732.00;;;-5.90
20289;BMP180;10303;51.960;8.372;2022-12-18T01:55:50;101719.00;;;-5.90
20289;BMP180;10303;51.960;8.372;2022-12-18T01:58:21;101720.00;;;-5.90
20289;BMP180;10303;51.960;8.372;2022-12-18T02:00:49;101720.00;;;-5.90
20289;BMP180;10303;51.960;8.372;2022-12-18T02:03:15;101725.00;;;-5.90
20289;BMP180;10303;51.960;8.372;2022-12-18T02:11:39;101724.00;;;-5.90
20289;BMP180;10303;51.960;8.372;2022-12-18T02:14:17;101740.00;;;-5.80
20289;BMP180;10303;51.960;8.372;2022-12-18T02:28:16;101719.00;;;-5.90
20289;BMP180;10303;51.960;8.372;2022-12-18T02:30:49;101720.00;;;-5.90
20289;BMP180;10303;51.960;8.372;2022-12-18T02:33:18;101707.00;;;-5.90
20289;BMP180;10303;51.960;8.372;2022-12-18T02:35:47;101699.00;;;-5.90
20289;BMP180;10303;51.960;8.372;2022-12-18T02:38:15;101702.00;;;-5.90
20289;BMP180;10303;51.960;8.372;2022-12-18T02:40:45;101705.00;;;-5.90
20289;BMP180;10303;51.960;8.372;2022-12-18T02:43:16;101708.00;;;-5.90
20289;BMP180;10303;51.960;8.372;2022-12-18T02:45:54;101708.00;;;-5.80
20289;BMP180;10303;51.960;8.372;2022-12-18T02:48:34;101693.00;;;-5.80
20289;BMP180;10303;51.960;8.372;2022-12-18T02:51:18;101708.00;;;-5.80
20289;BMP180;10303;51.960;8.372;2022-12-18T02:53:59;101695.00;;;-5.80
20289;BMP180;10303;51.960;8.372;2022-12-18T02:56:51;101700.00;;;-5.80
20289;BMP180;10303;51.960;8.372;2022-12-18T02:59:53;101709.00;;;-5.80
20289;BMP180;10303;51.960;8.372;2022-12-18T03:02:29;101716.00;;;-5.80
20289;BMP180;10303;51.960;8.372;2022-12-18T03:05:16;101722.00;;;-5.80
20289;BMP180;10303;51.960;8.372;2022-12-18T03:08:06;101714.00;;;-5.80
20289;BMP180;10303;51.960;8.372;2022-12-18T03:11:03;101712.00;;;-5.80
20289;BMP180;10303;51.960;8.372;2022-12-18T03:13:32;101709.00;;;-5.80
20289;BMP180;10303;51.960;8.372;2022-12-18T03:16:01;101712.00;;;-5.80
20289;BMP180;10303;51.960;8.372;2022-12-18T03:18:58;101699.00;;;-5.80
20289;BMP180;10303;51.960;8.372;2022-12-18T03:21:42;101703.00;;;-5.80
20289;BMP180;10303;51.960;8.372;2022-12-18T03:24:11;101716.00;;;-5.70
20289;BMP180;10303;51.960;8.372;2022-12-18T03:26:44;101711.00;;;-5.70
20289;BMP180;10303;51.960;8.372;2022-12-18T03:29:20;101718.00;;;-5.70
20289;BMP180;10303;51.960;8.372;2022-12-18T03:31:55;101722.00;;;-5.70
20289;BMP180;10303;51.960;8.372;2022-12-18T03:34:33;101721.00;;;-5.70
20289;BMP180;10303;51.960;8.372;2022-12-18T03:37:04;101725.00;;;-5.60
20289;BMP180;10303;51.960;8.372;2022-12-18T03:39:33;101726.00;;;-5.60
20289;BMP180;10303;51.960;8.372;2022-12-18T03:42:10;101726.00;;;-5.60
20289;BMP180;10303;51.960;8.372;2022-12-18T03:45:05;101720.00;;;-5.60
20289;BMP180;10303;51.960;8.372;2022-12-18T03:48:17;101720.00;;;-5.60
20289;BMP180;10303;51.960;8.372;2022-12-18T03:51:05;101716.00;;;-5.70
20289;BMP180;10303;51.960;8.372;2022-12-18T03:54:00;101708.00;;;-5.70
20289;BMP180;10303;51.960;8.372;2022-12-18T03:56:42;101700.00;;;-5.60
20289;BMP180;10303;51.960;8.372;2022-12-18T03:59:13;101709.00;;;-5.60
20289;BMP180;10303;51.960;8.372;2022-12-18T04:01:50;101705.00;;;-5.60
20289;BMP180;10303;51.960;8.372;2022-12-18T04:04:20;101699.00;;;-5.60
20289;BMP180;10303;51.960;8.372;2022-12-18T04:06:49;101718.00;;;-5.50
20289;BMP180;10303;51.960;8.372;2022-12-18T04:09:19;101706.00;;;-5.50
20289;BMP180;10303;51.960;8.372;2022-12-18T04:11:47;101712.00;;;-5.50
20289;BMP180;10303;51.960;8.372;2022-12-18T04:14:15;101706.00;;;-5.40
20289;BMP180;10303;51.960;8.372;2022-12-18T04:16:41;101708.00;;;-5.40
20289;BMP180;10303;51.960;8.372;2022-12-18T04:19:10;101707.00;;;-5.30
20289;BMP180;10303;51.960;8.372;2022-12-18T04:21:40;101718.00;;;-5.30
20289;BMP180;10303;51.960;8.372;2022-12-18T04:24:08;101720.00;;;-5.30
20289;BMP180;10303;51.960;8.372;2022-12-18T04:26:37;101721.00;;;-5.30
20289;BMP180;10303;51.960;8.372;2022-12-18T04:29:14;101723.00;;;-5.30
20289;BMP180;10303;51.960;8.372;2022-12-18T04:31:40;101723.00;;;-5.30
20289;BMP180;10303;51.960;8.372;2022-12-18T04:34:06;101717.00;;;-5.20
20289;BMP180;10303;51.960;8.372;2022-12-18T04:36:38;101719.00;;;-5.20
20289;BMP180;10303;51.960;8.372;2022-12-18T04:39:04;101710.00;;;-5.20
20289;BMP180;10303;51.960;8.372;2022-12-18T04:41:31;101721.00;;;-5.20
20289;BMP180;10303;51.960;8.372;2022-12-18T04:43:57;101718.00;;;-5.20
20289;BMP180;10303;51.960;8.372;2022-12-18T04:46:23;101721.00;;;-5.10
20289;BMP180;10303;51.960;8.372;2022-12-18T04:48:49;101728.00;;;-5.10
20289;BMP180;10303;51.960;8.372;2022-12-18T04:51:15;101727.00;;;-5.10
20289;BMP180;10303;51.960;8.372;2022-12-18T04:53:41;101729.00;;;-5.10
20289;BMP180;10303;51.960;8.372;2022-12-18T04:56:13;101732.00;;;-5.10
20289;BMP180;10303;51.960;8.372;2022-12-18T04:58:42;101726.00;;;-5.00
20289;BMP180;10303;51.960;8.372;2022-12-18T05:01:09;101723.00;;;-5.00
20289;BMP180;10303;51.960;8.372;2022-12-18T05:03:36;101721.00;;;-5.00
20289;BMP180;10303;51.960;8.372;2022-12-18T05:06:04;101713.00;;;-4.90
20289;BMP180;10303;51.960;8.372;2022-12-18T05:08:30;101712.00;;;-4.90
20289;BMP180;10303;51.960;8.372;2022-12-18T05:11:09;101713.00;;;-4.80
20289;BMP180;10303;51.960;8.372;2022-12-18T05:13:37;101699.00;;;-4.80
20289;BMP180;10303;51.960;8.372;2022-12-18T05:16:04;101703.00;;;-4.80
20289;BMP180;10303;51.960;8.372;2022-12-18T05:18:31;101702.00;;;-4.80
20289;BMP180;10303;51.960;8.372;2022-12-18T05:20:57;101696.00;;;-4.70
20289;BMP180;10303;51.960;8.372;2022-12-18T05:23:24;101707.00;;;-4.70
20289;BMP180;10303;51.960;8.372;2022-12-18T05:25:54;101700.00;;;-4.70
20289;BMP180;10303;51.960;8.372;2022-12-18T05:28:23;101707.00;;;-4.70
20289;BMP180;10303;51.960;8.372;2022-12-18T05:30:52;101710.00;;;-4.70
20289;BMP180;10303;51.960;8.372;2022-12-18T05:33:20;101719.00;;;-4.70
20289;BMP180;10303;51.960;8.372;2022-12-18T05:35:57;101715.00;;;-4.70
20289;BMP180;10303;51.960;8.372;2022-12-18T05:38:26;101722.00;;;-4.70
20289;BMP180;10303;51.960;8.372;2022-12-18T05:40:53;101710.00;;;-4.60
20289;BMP180;10303;51.960;8.372;2022-12-18T05:43:20;101706.00;;;-4.60
20289;BMP180;10303;51.960;8.372;2022-12-18T05:45:50;101706.00;;;-4.60
20289;BMP180;10303;51.960;8.372;2022-12-18T05:48:17;101697.00;;;-4.60
20289;BMP180;10303;51.960;8.372;2022-12-18T05:50:45;101694.00;;;-4.50
20289;BMP180;10303;51.960;8.372;2022-12-18T05:53:13;101696.00;;;-4.50
20289;BMP180;10303;51.960;8.372;2022-12-18T05:55:42;101697.00;;;-4.50
20289;BMP180;10303;51.960;8.372;2022-12-18T05:58:10;101691.00;;;-4.40
20289;BMP180;10303;51.960;8.372;2022-12-18T06:00:39;101692.00;;;-4.40
20289;BMP180;10303;51.960;8.372;2022-12-18T06:03:08;101703.00;;;-4.40
20289;BMP180;10303;51.960;8.372;2022-12-18T06:05:43;101695.00;;;-4.40
20289;BMP180;10303;51.960;8.372;2022-12-18T06:08:10;101711.00;;;-4.40
20289;BMP180;10303;51.960;8.372;2022-12-18T06:10:36;101695.00;;;-4.40
20289;BMP180;10303;51.960;8.372;2022-12-18T06:13:03;101709.00;;;-4.40
20289;BMP180;10303;51.960;8.372;2022-12-18T06:15:30;101715.00;;;-4.40
20289;BMP180;10303;51.960;8.372;2022-12-18T06:17:56;101714.00;;;-4.40
20289;BMP180;10303;51.960;8.372;2022-12-18T06:20:22;101714.00;;;-4.30
20289;BMP180;10303;51.960;8.372;2022-12-18T06:22:48;101713.00;;;-4.30
20289;BMP180;10303;51.960;8.372;2022-12-18T06:25:15;101722.00;;;-4.30
20289;BMP180;10303;51.960;8.372;2022-12-18T06:27:41;101725.00;;;-4.30
20289;BMP180;10303;51.960;8.372;2022-12-18T06:30:08;101732.00;;;-4.30
20289;BMP180;10303;51.960;8.372;2022-12-18T06:32:34;101732.00;;;-4.30
20289;BMP180;10303;51.960;8.372;2022-12-18T06:35:00;101731.00;;;-4.30
20289;BMP180;10303;51.960;8.372;2022-12-18T06:37:26;101730.00;;;-4.30
20289;BMP180;10303;51.960;8.372;2022-12-18T06:39:53;101726.00;;;-4.30
20289;BMP180;10303;51.960;8.372;2022-12-18T06:42:19;101732.00;;;-4.20
20289;BMP180;10303;51.960;8.372;2022-12-18T06:44:45;101733.00;;;-4.20
20289;BMP180;10303;51.960;8.372;2022-12-18T06:47:11;101726.00;;;-4.20
20289;BMP180;10303;51.960;8.372;2022-12-18T06:49:37;101726.00;;;-4.20
20289;BMP180;10303;51.960;8.372;2022-12-18T06:52:03;101736.00;;;-4.20
20289;BMP180;10303;51.960;8.372;2022-12-18T06:54:29;101740.00;;;-4.10
20289;BMP180;10303;51.960;8.372;2022-12-18T06:56:56;101750.00;;;-4.10
20289;BMP180;10303;51.960;8.372;2022-12-18T06:59:22;101745.00;;;-4.10
20289;BMP180;10303;51.960;8.372;2022-12-18T07:01:48;101743.00;;;-4.10
20289;BMP180;10303;51.960;8.372;2022-12-18T07:04:14;101745.00;;;-4.10
20289;BMP180;10303;51.960;8.372;2022-12-18T07:06:39;101748.00;;;-4.10
20289;BMP180;10303;51.960;8.372;2022-12-18T07:09:06;101737.00;;;-4.10
20289;BMP180;10303;51.960;8.372;2022-12-18T07:11:35;101746.00;;;-4.10
20289;BMP180;10303;51.960;8.372;2022-12-18T07:14:01;101743.00;;;-4.10
20289;BMP180;10303;51.960;8.372;2022-12-18T07:16:27;101736.00;;;-4.10
20289;BMP180;10303;51.960;8.372;2022-12-18T07:18:56;101734.00;;;-4.10
20289;BMP180;10303;51.960;8.372;2022-12-18T07:21:23;101730.00;;;-4.10
20289;BMP180;10303;51.960;8.372;2022-12-18T07:23:50;101746.00;;;-4.10
20289;BMP180;10303;51.960;8.372;2022-12-18T07:26:19;101736.00;;;-4.10
20289;BMP180;10303;51.960;8.372;2022-12-18T07:28:47;101727.00;;;-4.10
20289;BMP180;10303;51.960;8.372;2022-12-18T07:31:17;101733.00;;;-4.10
20289;BMP180;10303;51.960;8.372;2022-12-18T07:33:45;101726.00;;;-4.10
20289;BMP180;10303;51.960;8.372;2022-12-18T07:36:13;101733.00;;;-4.00
20289;BMP180;10303;51.960;8.372;2022-12-18T07:38:40;101745.00;;;-4.00
20289;BMP180;10303;51.960;8.372;2022-12-18T07:41:12;101734.00;;;-4.00
20289;BMP180;10303;51.960;8.372;2022-12-18T07:43:40;101739.00;;;-3.90
20289;BMP180;10303;51.960;8.372;2022-12-18T07:46:08;101748.00;;;-3.90
20289;BMP180;10303;51.960;8.372;2022-12-18T07:48:34;101750.00;;;-3.90
20289;BMP180;10303;51.960;8.372;2022-12-18T07:51:03;101743.00;;;-3.90
20289;BMP180;10303;51.960;8.372;2022-12-18T07:53:30;101734.00;;;-3.80
20289;BMP180;10303;51.960;8.372;2022-12-18T07:55:58;101737.00;;;-3.80
20289;BMP180;10303;51.960;8.372;2022-12-18T07:58:24;101726.00;;;-3.80
20289;BMP180;10303;51.960;8.372;2022-12-18T08:00:52;101728.00;;;-3.70
20289;BMP180;10303;51.960;8.372;2022-12-18T08:03:19;101727.00;;;-3.60
20289;BMP180;10303;51.960;8.372;2022-12-18T08:05:45;101733.00;;;-3.60
20289;BMP180;10303;51.960;8.372;2022-12-18T08:08:11;101728.00;;;-3.50
20289;BMP180;10303;51.960;8.372;2022-12-18T08:10:38;101711.00;;;-3.50
20289;BMP180;10303;51.960;8.372;2022-12-18T08:13:04;101724.00;;;-3.40
20289;BMP180;10303;51.960;8.372;2022-12-18T08:15:30;101719.00;;;-3.40
20289;BMP180;10303;51.960;8.372;2022-12-18T08:17:57;101712.00;;;-3.30
20289;BMP180;10303;51.960;8.372;2022-12-18T08:20:23;101718.00;;;-3.20
20289;BMP180;10303;51.960;8.372;2022-12-18T08:22:48;101715.00;;;-3.10
20289;BMP180;10303;51.960;8.372;2022-12-18T08:25:15;101705.00;;;-3.00
20289;BMP180;10303;51.960;8.372;2022-12-18T08:27:41;101712.00;;;-2.90
20289;BMP180;10303;51.960;8.372;2022-12-18T08:30:07;101712.00;;;-2.80
20289;BMP180;10303;51.960;8.372;2022-12-18T08:32:34;101715.00;;;-2.70
20289;BMP180;10303;51.960;8.372;2022-12-18T08:35:00;101709.00;;;-2.60
20289;BMP180;10303;51.960;8.372;2022-12-18T08:37:26;101706.00;;;-2.40
20289;BMP180;10303;51.960;8.372;2022-12-18T08:39:52;101706.00;;;-2.30
20289;BMP180;10303;51.960;8.372;2022-12-18T08:42:18;101700.00;;;-2.20
20289;BMP180;10303;51.960;8.372;2022-12-18T08:45:03;101707.00;;;-2.10
20289;BMP180;10303;51.960;8.372;2022-12-18T08:47:29;101706.00;;;-2.00
20289;BMP180;10303;51.960;8.372;2022-12-18T08:49:55;101710.00;;;-1.90
20289;BMP180;10303;51.960;8.372;2022-12-18T08:52:21;101711.00;;;-1.80
20289;BMP180;10303;51.960;8.372;2022-12-18T08:54:47;101720.00;;;-1.60
20289;BMP180;10303;51.960;8.372;2022-12-18T08:57:13;101722.00;;;-1.50
20289;BMP180;10303;51.960;8.372;2022-12-18T08:59:39;101714.00;;;-1.30
20289;BMP180;10303;51.960;8.372;2022-12-18T09:02:05;101708.00;;;-0.90
20289;BMP180;10303;51.960;8.372;2022-12-18T09:04:31;101701.00;;;-0.50
20289;BMP180;10303;51.960;8.372;2022-12-18T09:06:57;101703.00;;;0.00
20289;BMP180;10303;51.960;8.372;2022-12-18T09:09:23;101701.00;;;0.50
20289;BMP180;10303;51.960;8.372;2022-12-18T09:11:49;101711.00;;;0.90
20289;BMP180;10303;51.960;8.372;2022-12-18T09:14:15;101704.00;;;1.10
20289;BMP180;10303;51.960;8.372;2022-12-18T09:16:41;101724.00;;;1.20
20289;BMP180;10303;51.960;8.372;2022-12-18T09:19:09;101719.00;;;1.30
20289;BMP180;10303;51.960;8.372;2022-12-18T09:21:35;101721.00;;;1.30
20289;BMP180;10303;51.960;8.372;2022-12-18T09:24:01;101722.00;;;1.30
20289;BMP180;10303;51.960;8.372;2022-12-18T09:26:28;101716.00;;;1.30
20289;BMP180;10303;51.960;8.372;2022-12-18T09:28:54;101713.00;;;1.30
20289;BMP180;10303;51.960;8.372;2022-12-18T09:31:22;101717.00;;;1.30
20289;BMP180;10303;51.960;8.372;2022-12-18T09:33:50;101717.00;;;1.40
20289;BMP180;10303;51.960;8.372;2022-12-18T09:36:18;101707.00;;;1.40
20289;BMP180;10303;51.960;8.372;2022-12-18T09:38:44;101712.00;;;1.50
20289;BMP180;10303;51.960;8.372;2022-12-18T09:42:05;101706.00;;;1.70
20289;BMP180;10303;51.960;8.372;2022-12-18T09:44:45;101711.00;;;1.90
20289;BMP180;10303;51.960;8.372;2022-12-18T09:47:24;101717.00;;;2.10
20289;BMP180;10303;51.960;8.372;2022-12-18T09:49:58;101721.00;;;2.20
20289;BMP180;10303;51.960;8.372;2022-12-18T09:52:48;101715.00;;;2.50
20289;BMP180;10303;51.960;8.372;2022-12-18T09:55:41;101724.00;;;2.70
20289;BMP180;10303;51.960;8.372;2022-12-18T09:58:33;101728.00;;;2.90
20289;BMP180;10303;51.960;8.372;2022-12-18T10:01:01;101724.00;;;3.10
20289;BMP180;10303;51.960;8.372;2022-12-18T10:03:28;101719.00;;;3.20
20289;BMP180;10303;51.960;8.372;2022-12-18T10:06:35;101727.00;;;3.40
20289;BMP180;10303;51.960;8.372;2022-12-18T10:15:24;101716.00;;;3.70
20289;BMP180;10303;51.960;8.372;2022-12-18T10:21:07;101695.00;;;3.90
20289;BMP180;10303;51.960;8.372;2022-12-18T10:23:57;101676.00;;;4.00
20289;BMP180;10303;51.960;8.372;2022-12-18T10:26:25;101670.00;;;4.30
20289;BMP180;10303;51.960;8.372;2022-12-18T10:28:53;101668.00;;;4.50
20289;BMP180;10303;51.960;8.372;2022-12-18T10:31:23;101659.00;;;4.70
20289;BMP180;10303;51.960;8.372;2022-12-18T10:33:49;101658.00;;;4.90
20289;BMP180;10303;51.960;8.372;2022-12-18T10:36:15;101650.00;;;5.10
20289;BMP180;10303;51.960;8.372;2022-12-18T10:38:42;101641.00;;;5.20
20289;BMP180;10303;51.960;8.372;2022-12-18T10:44:23;101644.00;;;5.40
20289;BMP180;10303;51.960;8.372;2022-12-18T10:46:54;101650.00;;;5.40
20289;BMP180;10303;51.960;8.372;2022-12-18T10:49:29;101654.00;;;5.40
20289;BMP180;10303;51.960;8.372;2022-12-18T10:52:15;101656.00;;;5.40
20289;BMP180;10303;51.960;8.372;2022-12-18T10:57:37;101647.00;;;5.30
20289;BMP180;10303;51.960;8.372;2022-12-18T11:02:51;101612.00;;;5.30
20289;BMP180;10303;51.960;8.372;2022-12-18T11:07:55;101607.00;;;5.20
20289;BMP180;10303;51.960;8.372;2022-12-18T11:10:35;101620.00;;;5.20
20289;BMP180;10303;51.960;8.372;2022-12-18T11:13:19;101609.00;;;5.20
20289;BMP180;10303;51.960;8.372;2022-12-18T11:15:47;101593.00;;;5.20
20289;BMP180;10303;51.960;8.372;2022-12-18T11:18:35;101577.00;;;5.20
20289;BMP180;10303;51.960;8.372;2022-12-18T11:21:09;101567.00;;;5.20
20289;BMP180;10303;51.960;8.372;2022-12-18T11:23:49;101559.00;;;5.20
20289;BMP180;10303;51.960;8.372;2022-12-18T11:26:16;101564.00;;;5.20
20289;BMP180;10303;51.960;8.372;2022-12-18T11:29:09;101569.00;;;5.10
20289;BMP180;10303;51.960;8.372;2022-12-18T11:31:35;101571.00;;;5.20
20289;BMP180;10303;51.960;8.372;2022-12-18T11:34:13;101563.00;;;5.10
20289;BMP180;10303;51.960;8.372;2022-12-18T11:36:46;101558.00;;;5.20
20289;BMP180;10303;51.960;8.372;2022-12-18T11:39:35;101565.00;;;5.20
20289;BMP180;10303;51.960;8.372;2022-12-18T11:42:20;101572.00;;;5.30
20289;BMP180;10303;51.960;8.372;2022-12-18T11:45:00;101566.00;;;5.30
20289;BMP180;10303;51.960;8.372;2022-12-18T11:48:21;101553.00;;;5.40
20289;BMP180;10303;51.960;8.372;2022-12-18T11:50:55;101542.00;;;5.40
20289;BMP180;10303;51.960;8.372;2022-12-18T11:53:24;101546.00;;;5.40
20289;BMP180;10303;51.960;8.372;2022-12-18T12:08:56;101503.00;;;5.30
20289;BMP180;10303;51.960;8.372;2022-12-18T12:11:39;101503.00;;;5.20
20289;BMP180;10303;51.960;8.372;2022-12-18T12:23:09;101499.00;;;5.10
20289;BMP180;10303;51.960;8.372;2022-12-18T12:25:55;101482.00;;;5.10
20289;BMP180;10303;51.960;8.372;2022-12-18T12:39:54;101493.00;;;5.00
20289;BMP180;10303;51.960;8.372;2022-12-18T12:42:38;101489.00;;;5.00
20289;BMP180;10303;51.960;8.372;2022-12-18T12:45:34;101497.00;;;4.90
20289;BMP180;10303;51.960;8.372;2022-12-18T12:48:05;101501.00;;;4.90
20289;BMP180;10303;51.960;8.372;2022-12-18T12:50:35;101502.00;;;4.90
20289;BMP180;10303;51.960;8.372;2022-12-18T12:53:09;101494.00;;;4.90
20289;BMP180;10303;51.960;8.372;2022-12-18T12:55:40;101496.00;;;4.90
20289;BMP180;10303;51.960;8.372;2022-12-18T13:07:12;101460.00;;;4.80
20289;BMP180;10303;51.960;8.372;2022-12-18T13:15:47;101440.00;;;4.80
20289;BMP180;10303;51.960;8.372;2022-12-18T13:20:49;101436.00;;;4.70
20289;BMP180;10303;51.960;8.372;2022-12-18T13:31:01;101405.00;;;4.70
20289;BMP180;10303;51.960;8.372;2022-12-18T13:36:27;101406.00;;;4.60
20289;BMP180;10303;51.960;8.372;2022-12-18T13:44:40;101404.00;;;4.60
20289;BMP180;10303;51.960;8.372;2022-12-18T13:47:36;101408.00;;;4.50
20289;BMP180;10303;51.960;8.372;2022-12-18T13:50:23;101411.00;;;4.50
20289;BMP180;10303;51.960;8.372;2022-12-18T13:52:52;101407.00;;;4.50
20289;BMP180;10303;51.960;8.372;2022-12-18T13:55:22;101400.00;;;4.60
20289;BMP180;10303;51.960;8.372;2022-12-18T13:57:48;101401.00;;;4.60
20289;BMP180;10303;51.960;8.372;2022-12-18T14:00:24;101407.00;;;4.50
20289;BMP180;10303;51.960;8.372;2022-12-18T14:02:51;101401.00;;;4.60
20289;BMP180;10303;51.960;8.372;2022-12-18T14:05:29;101393.00;;;4.50
20289;BMP180;10303;51.960;8.372;2022-12-18T14:08:03;101402.00;;;4.50
20289;BMP180;10303;51.960;8.372;2022-12-18T14:10:30;101396.00;;;4.50
20289;BMP180;10303;51.960;8.372;2022-12-18T14:13:05;101393.00;;;4.50
20289;BMP180;10303;51.960;8.372;2022-12-18T14:15:42;101393.00;;;4.50
20289;BMP180;10303;51.960;8.372;2022-12-18T14:18:29;101407.00;;;4.50
20289;BMP180;10303;51.960;8.372;2022-12-18T14:21:03;101391.00;;;4.50
20289;BMP180;10303;51.960;8.372;2022-12-18T14:23:39;101396.00;;;4.50
20289;BMP180;10303;51.960;8.372;2022-12-18T14:26:31;101392.00;;;4.50
20289;BMP180;10303;51.960;8.372;2022-12-18T14:29:27;101385.00;;;4.50
20289;BMP180;10303;51.960;8.372;2022-12-18T14:32:19;101382.00;;;4.50
20289;BMP180;10303;51.960;8.372;2022-12-18T14:34:51;101389.00;;;4.50
20289;BMP180;10303;51.960;8.372;2022-12-18T14:37:27;101390.00;;;4.50
20289;BMP180;10303;51.960;8.372;2022-12-18T14:40:03;101366.00;;;4.40
20289;BMP180;10303;51.960;8.372;2022-12-18T14:42:30;101370.00;;;4.40
20289;BMP180;10303;51.960;8.372;2022-12-18T14:45:35;101383.00;;;4.40
20289;BMP180;10303;51.960;8.372;2022-12-18T14:48:31;101376.00;;;4.40
20289;BMP180;10303;51.960;8.372;2022-12-18T14:51:04;101371.00;;;4.40
20289;BMP180;10303;51.960;8.372;2022-12-18T14:53:34;101368.00;;;4.40
20289;BMP180;10303;51.960;8.372;2022-12-18T14:56:03;101369.00;;;4.40
20289;BMP180;10303;51.960;8.372;2022-12-18T14:58:36;101367.00;;;4.40
20289;BMP180;10303;51.960;8.372;2022-12-18T15:01:02;101363.00;;;4.40
20289;BMP180;10303;51.960;8.372;2022-12-18T15:03:28;101351.00;;;4.40
20289;BMP180;10303;51.960;8.372;2022-12-18T15:05:55;101356.00;;;4.30
20289;BMP180;10303;51.960;8.372;2022-12-18T15:08:37;101362.00;;;4.30
20289;BMP180;10303;51.960;8.372;2022-12-18T15:11:44;101357.00;;;4.30
20289;BMP180;10303;51.960;8.372;2022-12-18T15:16:59;101350.00;;;4.20
20289;BMP180;10303;51.960;8.372;2022-12-18T15:19:39;101361.00;;;4.20
20289;BMP180;10303;51.960;8.372;2022-12-18T15:22:35;101349.00;;;4.20
20289;BMP180;10303;51.960;8.372;2022-12-18T15:25:34;101342.00;;;4.20
20289;BMP180;10303;51.960;8.372;2022-12-18T15:28:03;101336.00;;;4.20
20289;BMP180;10303;51.960;8.372;2022-12-18T15:30:30;101327.00;;;4.20
20289;BMP180;10303;51.960;8.372;2022-12-18T15:33:23;101318.00;;;4.10
20289;BMP180;10303;51.960;8.372;2022-12-18T15:36:03;101325.00;;;4.10
20289;BMP180;10303;51.960;8.372;2022-12-18T15:38:29;101316.00;;;4.10
20289;BMP180;10303;51.960;8.372;2022-12-18T15:40:55;101318.00;;;4.10
20289;BMP180;10303;51.960;8.372;2022-12-18T15:43:23;101306.00;;;4.10
20289;BMP180;10303;51.960;8.372;2022-12-18T15:46:23;101309.00;;;4.10
20289;BMP180;10303;51.960;8.372;2022-12-18T15:48:56;101303.00;;;4.10
20289;BMP180;10303;51.960;8.372;2022-12-18T15:51:28;101290.00;;;4.10
20289;BMP180;10303;51.960;8.372;2022-12-18T15:53:58;101289.00;;;4.10
20289;BMP180;10303;51.960;8.372;2022-12-18T15:56:25;101285.00;;;4.00
20289;BMP180;10303;51.960;8.372;2022-12-18T15:59:16;101291.00;;;4.00
20289;BMP180;10303;51.960;8.372;2022-12-18T16:01:47;101289.00;;;4.00
20289;BMP180;10303;51.960;8.372;2022-12-18T16:04:16;101284.00;;;4.00
20289;BMP180;10303;51.960;8.372;2022-12-18T16:06:43;101287.00;;;4.00
20289;BMP180;10303;51.960;8.372;2022-12-18T16:09:09;101287.00;;;4.00
20289;BMP180;10303;51.960;8.372;2022-12-18T16:11:37;101281.00;;;3.90
20289;BMP180;10303;51.960;8.372;2022-12-18T16:14:20;101274.00;;;3.90
20289;BMP180;10303;51.960;8.372;2022-12-18T16:16:58;101268.00;;;3.90
20289;BMP180;10303;51.960;8.372;2022-12-18T16:19:25;101261.00;;;3.90